createdAt,value
2018-09-05T00:01:32.261Z,97405.69
2018-09-05T00:04:02.010Z,97406.39
2018-09-05T00:06:31.946Z,97408.09
2018-09-05T00:09:02.142Z,97408.76
2018-09-05T00:11:31.932Z,97404.57
2018-09-05T00:14:01.664Z,97398.83
2018-09-05T00:16:31.421Z,97397.30
2018-09-05T00:19:01.229Z,97397.79
2018-09-05T00:21:31.142Z,97395.63
2018-09-05T00:24:01.071Z,97392.64
2018-09-05T00:26:30.797Z,97391.39
2018-09-05T00:29:00.414Z,97393.07
2018-09-05T00:31:30.211Z,97396.59
2018-09-05T00:34:00.088Z,97397.83
2018-09-05T00:36:30.029Z,97398.66
2018-09-05T00:38:59.927Z,97396.76
2018-09-05T00:41:30.651Z,97395.84
2018-09-05T00:44:00.393Z,97398.45
2018-09-05T00:46:30.468Z,97405.36
2018-09-05T00:49:00.001Z,97396.89
2018-09-05T00:51:29.675Z,97399.02
2018-09-05T00:53:59.434Z,97394.95
2018-09-05T00:56:29.273Z,97396.64
2018-09-05T00:58:58.946Z,97397.27
2018-09-05T01:01:29.714Z,97395.13
2018-09-05T01:03:59.654Z,97397.39
2018-09-05T01:06:29.842Z,97398.22
2018-09-05T01:08:59.729Z,97408.40
2018-09-05T01:11:30.490Z,97406.42
2018-09-05T01:14:00.253Z,97400.47
2018-09-05T01:16:30.173Z,97404.58
2018-09-05T01:18:59.872Z,97406.59
2018-09-05T01:21:29.781Z,97405.66
2018-09-05T01:23:59.752Z,97405.03
2018-09-05T01:26:29.587Z,97404.45
2018-09-05T01:28:59.383Z,97400.51
2018-09-05T01:31:29.339Z,97405.97
2018-09-05T01:33:59.223Z,97402.03
2018-09-05T01:36:29.173Z,97405.08
2018-09-05T01:38:58.813Z,97403.65
2018-09-05T01:41:28.727Z,97403.40
2018-09-05T01:43:58.465Z,97403.27
2018-09-05T01:46:28.277Z,97410.28
2018-09-05T01:48:58.008Z,97410.86
2018-09-05T01:51:27.839Z,97409.78
2018-09-05T01:53:57.389Z,97411.22
2018-09-05T01:56:27.056Z,97408.59
2018-09-05T01:58:56.749Z,97419.23
2018-09-05T02:01:26.480Z,97423.30
2018-09-05T02:03:56.259Z,97418.66
2018-09-05T02:06:26.034Z,97419.61
2018-09-05T02:08:55.528Z,97419.13
2018-09-05T02:11:25.529Z,97417.81
2018-09-05T02:13:55.136Z,97418.30
2018-09-05T02:16:25.062Z,97419.98
2018-09-05T02:18:54.487Z,97418.06
2018-09-05T02:21:24.341Z,97424.63
2018-09-05T02:23:53.795Z,97430.75
2018-09-05T02:26:23.432Z,97425.13
2018-09-05T02:28:53.477Z,97422.98
2018-09-05T02:31:22.971Z,97427.13
2018-09-05T02:33:52.743Z,97433.01
2018-09-05T02:36:22.335Z,97424.50
2018-09-05T02:38:52.892Z,97433.26
2018-09-05T02:41:22.488Z,97433.26
2018-09-05T02:43:57.005Z,97428.48
2018-09-05T02:46:26.627Z,97430.14
2018-09-05T02:48:56.415Z,97436.25
2018-09-05T02:51:26.138Z,97435.89
2018-09-05T02:53:56.038Z,97430.02
2018-09-05T02:56:25.917Z,97434.20
2018-09-05T02:58:55.874Z,97433.45
2018-09-05T03:01:25.836Z,97432.76
2018-09-05T03:03:55.610Z,97432.39
2018-09-05T03:06:25.557Z,97427.13
2018-09-05T03:08:55.177Z,97435.06
2018-09-05T03:11:24.893Z,97437.94
2018-09-05T03:13:54.320Z,97433.66
2018-09-05T03:16:24.067Z,97437.94
2018-09-05T03:18:53.730Z,97442.95
2018-09-05T03:21:23.595Z,97430.17
2018-09-05T03:23:53.386Z,97434.65
2018-09-05T03:26:24.349Z,97436.09
2018-09-05T03:28:53.916Z,97435.11
2018-09-05T03:31:25.196Z,97435.14
2018-09-05T03:33:54.759Z,97435.97
2018-09-05T03:36:25.733Z,97438.59
2018-09-05T03:38:55.431Z,97441.09
2018-09-05T03:41:25.207Z,97440.89
2018-09-05T03:43:54.933Z,97448.89
2018-09-05T03:46:24.435Z,97445.32
2018-09-05T03:48:54.324Z,97446.48
2018-09-05T03:51:23.919Z,97444.38
2018-09-05T03:53:54.528Z,97456.16
2018-09-05T03:56:24.333Z,97453.26
2018-09-05T03:58:54.551Z,97453.75
2018-09-05T04:01:24.255Z,97457.60
2018-09-05T04:03:54.169Z,97457.60
2018-09-05T04:06:23.838Z,97459.86
2018-09-05T04:08:54.482Z,97464.30
2018-09-05T04:11:24.270Z,97465.73
2018-09-05T04:13:54.091Z,97467.05
2018-09-05T04:16:23.840Z,97466.80
2018-09-05T04:18:53.901Z,97470.25
2018-09-05T04:21:23.635Z,97467.41
2018-09-05T04:23:53.470Z,97471.81
2018-09-05T04:26:23.421Z,97470.50
2018-09-05T04:28:53.191Z,97478.14
2018-09-05T04:31:22.999Z,97476.00
2018-09-05T04:33:53.034Z,97478.77
2018-09-05T04:36:25.117Z,97480.06
2018-09-05T04:38:59.357Z,97480.06
2018-09-05T04:41:33.710Z,97481.50
2018-09-05T04:44:20.944Z,97489.14
2018-09-05T04:47:03.185Z,97493.66
2018-09-05T04:49:33.090Z,97493.45
2018-09-05T04:52:03.310Z,97496.66
2018-09-05T04:54:33.401Z,97500.47
2018-09-05T04:57:06.121Z,97500.48
2018-09-05T04:59:36.455Z,97502.73
2018-09-05T05:02:06.635Z,97502.50
2018-09-05T05:04:37.083Z,97498.06
2018-09-05T05:07:07.175Z,97500.81
2018-09-05T05:09:37.062Z,97506.44
2018-09-05T05:12:06.876Z,97505.34
2018-09-05T05:14:36.598Z,97508.80
2018-09-05T05:17:06.494Z,97513.31
2018-09-05T05:19:36.138Z,97512.95
2018-09-05T05:22:05.926Z,97515.55
2018-09-05T05:24:35.455Z,97516.16
2018-09-05T05:27:05.247Z,97519.98
2018-09-05T05:29:34.807Z,97524.50
2018-09-05T05:32:04.487Z,97526.22
2018-09-05T05:34:33.978Z,97525.73
2018-09-05T05:37:03.794Z,97529.76
2018-09-05T05:39:33.353Z,97532.84
2018-09-05T05:42:04.257Z,97531.92
2018-09-05T05:44:34.049Z,97533.82
2018-09-05T05:47:05.062Z,97532.17
2018-09-05T05:49:34.832Z,97538.34
2018-09-05T05:52:04.549Z,97535.55
2018-09-05T05:54:34.170Z,97535.30
2018-09-05T05:57:03.812Z,97536.37
2018-09-05T05:59:33.525Z,97536.20
2018-09-05T06:02:04.038Z,97531.55
2018-09-05T06:04:33.785Z,97534.30
2018-09-05T06:07:03.544Z,97520.95
2018-09-05T06:09:33.320Z,97530.25
2018-09-05T06:12:03.045Z,97531.50
2018-09-05T06:14:35.601Z,97525.16
2018-09-05T06:17:05.362Z,97522.09
2018-09-05T06:19:35.033Z,97522.56
2018-09-05T06:22:04.793Z,97519.58
2018-09-05T06:24:35.265Z,97520.33
2018-09-05T06:27:05.103Z,97523.59
2018-09-05T06:29:34.950Z,97521.25
2018-09-05T06:32:04.609Z,97525.69
2018-09-05T06:34:34.157Z,97521.48
2018-09-05T06:37:03.636Z,97520.19
2018-09-05T06:39:33.379Z,97530.15
2018-09-05T06:42:03.080Z,97528.41
2018-09-05T06:44:32.879Z,97527.22
2018-09-05T06:47:02.813Z,97532.02
2018-09-05T06:49:32.608Z,97532.28
2018-09-05T06:52:02.300Z,97529.20
2018-09-05T06:54:32.317Z,97529.19
2018-09-05T06:57:01.895Z,97531.55
2018-09-05T06:59:31.357Z,97530.73
2018-09-05T07:02:01.024Z,97527.41
2018-09-05T07:04:30.789Z,97534.00
2018-09-05T07:07:00.279Z,97531.13
2018-09-05T07:09:29.881Z,97533.67
2018-09-05T07:11:59.467Z,97527.32
2018-09-05T07:14:29.260Z,97526.00
2018-09-05T07:16:58.844Z,97532.50
2018-09-05T07:19:28.606Z,97531.28
2018-09-05T07:21:58.374Z,97529.17
2018-09-05T07:24:28.095Z,97531.57
2018-09-05T07:26:57.667Z,97536.53
2018-09-05T07:29:27.114Z,97538.77
2018-09-05T07:31:56.537Z,97542.97
2018-09-05T07:34:26.176Z,97542.00
2018-09-05T07:36:55.855Z,97542.29
2018-09-05T07:39:25.517Z,97545.89
2018-09-05T07:41:55.196Z,97549.83
2018-09-05T07:44:25.028Z,97553.73
2018-09-05T07:46:54.591Z,97551.40
2018-09-05T07:49:24.255Z,97551.67
2018-09-05T07:51:54.032Z,97549.20
2018-09-05T07:54:23.878Z,97546.46
2018-09-05T07:56:53.667Z,97546.37
2018-09-05T07:59:23.453Z,97545.38
2018-09-05T08:01:53.346Z,97543.08
2018-09-05T08:04:23.190Z,97544.05
2018-09-05T08:06:52.881Z,97544.77
2018-09-05T08:09:22.654Z,97544.59
2018-09-05T08:11:52.553Z,97548.84
2018-09-05T08:14:22.151Z,97541.65
2018-09-05T08:16:51.708Z,97548.27
2018-09-05T08:19:21.697Z,97552.34
2018-09-05T08:21:51.294Z,97548.20
2018-09-05T08:24:21.321Z,97551.91
2018-09-05T08:26:50.697Z,97550.80
2018-09-05T08:29:20.750Z,97555.50
2018-09-05T08:31:51.113Z,97555.70
2018-09-05T08:34:20.888Z,97557.76
2018-09-05T08:36:50.869Z,97558.77
2018-09-05T08:39:20.296Z,97562.72
2018-09-05T08:41:49.994Z,97561.02
2018-09-05T08:44:19.680Z,97562.35
2018-09-05T08:46:49.330Z,97566.17
2018-09-05T08:49:18.886Z,97560.44
2018-09-05T08:51:48.403Z,97556.88
2018-09-05T08:54:18.068Z,97547.53
2018-09-05T08:56:47.767Z,97544.98
2018-09-05T08:59:17.406Z,97538.86
2018-09-05T09:01:47.117Z,97540.12
2018-09-05T09:04:17.091Z,97537.92
2018-09-05T09:06:46.811Z,97535.23
2018-09-05T09:09:16.472Z,97525.73
2018-09-05T09:11:46.081Z,97528.00
2018-09-05T09:14:15.884Z,97522.27
2018-09-05T09:16:45.848Z,97525.58
2018-09-05T09:19:15.772Z,97522.14
2018-09-05T09:21:45.362Z,97517.57
2018-09-05T09:24:15.392Z,97525.33
2018-09-05T09:26:45.196Z,97521.79
2018-09-05T09:29:15.034Z,97520.57
2018-09-05T09:31:44.747Z,97523.56
2018-09-05T09:34:14.553Z,97515.73
2018-09-05T09:36:44.339Z,97509.14
2018-09-05T09:39:14.056Z,97515.70
2018-09-05T09:41:43.959Z,97509.80
2018-09-05T09:44:14.637Z,97509.80
2018-09-05T09:46:45.264Z,97503.06
2018-09-05T09:49:14.952Z,97503.80
2018-09-05T09:51:44.778Z,97503.50
2018-09-05T09:54:14.652Z,97506.27
2018-09-05T09:56:44.332Z,97506.13
2018-09-05T09:59:14.561Z,97499.30
2018-09-05T10:01:49.204Z,97499.23
2018-09-05T10:06:26.542Z,97496.31
2018-09-05T10:09:01.266Z,97488.45
2018-09-05T10:11:35.989Z,97483.27
2018-09-05T10:14:10.833Z,97484.70
2018-09-05T10:17:45.469Z,97481.66
2018-09-05T10:20:15.416Z,97473.98
2018-09-05T10:22:45.289Z,97472.20
2018-09-05T10:25:15.340Z,97465.76
2018-09-05T10:27:45.715Z,97459.78
2018-09-05T10:30:15.510Z,97471.27
2018-09-05T10:32:45.537Z,97473.58
2018-09-05T10:35:15.694Z,97475.20
2018-09-05T10:37:45.357Z,97472.69
2018-09-05T10:40:15.129Z,97459.93
2018-09-05T10:42:44.866Z,97468.39
2018-09-05T10:45:14.965Z,97464.15
2018-09-05T10:47:45.692Z,97460.88
2018-09-05T10:50:15.772Z,97462.84
2018-09-05T10:52:45.921Z,97459.17
2018-09-05T10:55:15.654Z,97455.59
2018-09-05T10:57:45.361Z,97459.00
2018-09-05T11:00:15.164Z,97457.65
2018-09-05T11:02:44.889Z,97454.70
2018-09-05T11:05:14.636Z,97450.94
2018-09-05T11:07:44.397Z,97447.53
2018-09-05T11:10:14.174Z,97442.72
2018-09-05T11:12:44.415Z,97439.61
2018-09-05T11:15:14.166Z,97449.71
2018-09-05T11:17:43.762Z,97442.36
2018-09-05T11:20:14.193Z,97440.34
2018-09-05T11:22:43.934Z,97437.27
2018-09-05T11:25:13.689Z,97433.73
2018-09-05T11:27:43.487Z,97433.00
2018-09-05T11:30:13.608Z,97425.64
2018-09-05T11:32:43.375Z,97427.41
2018-09-05T11:35:13.067Z,97428.34
2018-09-05T11:37:42.815Z,97432.78
2018-09-05T11:40:12.604Z,97427.32
2018-09-05T11:42:42.349Z,97427.91
2018-09-05T11:45:12.195Z,97425.75
2018-09-05T11:47:41.875Z,97423.14
2018-09-05T11:50:11.649Z,97419.44
2018-09-05T11:52:41.619Z,97419.72
2018-09-05T11:55:11.696Z,97418.20
2018-09-05T11:57:41.585Z,97424.16
2018-09-05T12:00:11.362Z,97418.93
2018-09-05T12:02:41.046Z,97420.14
2018-09-05T12:05:10.815Z,97418.84
2018-09-05T12:07:40.565Z,97421.47
2018-09-05T12:10:10.409Z,97410.55
2018-09-05T12:12:40.163Z,97415.33
2018-09-05T12:15:09.956Z,97409.53
2018-09-05T12:17:39.611Z,97413.03
2018-09-05T12:20:09.361Z,97404.38
2018-09-05T12:22:39.174Z,97399.17
2018-09-05T12:25:09.191Z,97392.17
2018-09-05T12:27:38.892Z,97394.95
2018-09-05T12:30:08.798Z,97392.88
2018-09-05T12:32:38.655Z,97389.59
2018-09-05T12:35:10.128Z,97389.06
2018-09-05T12:37:39.899Z,97390.55
2018-09-05T12:40:09.768Z,97385.22
2018-09-05T12:42:39.446Z,97384.66
2018-09-05T12:45:09.245Z,97382.92
2018-09-05T12:47:38.938Z,97380.78
2018-09-05T12:50:08.727Z,97383.54
2018-09-05T12:52:38.491Z,97382.69
2018-09-05T12:55:08.429Z,97377.56
2018-09-05T12:57:38.028Z,97379.16
2018-09-05T13:00:08.074Z,97375.05
2018-09-05T13:02:38.483Z,97376.45
2018-09-05T13:05:08.378Z,97371.59
2018-09-05T13:07:37.995Z,97368.56
2018-09-05T13:10:09.704Z,97366.00
2018-09-05T13:12:40.165Z,97366.83
2018-09-05T13:15:09.906Z,97365.90
2018-09-05T13:17:39.768Z,97361.37
2018-09-05T13:20:09.685Z,97360.72
2018-09-05T13:22:40.195Z,97356.56
2018-09-05T13:25:10.098Z,97352.62
2018-09-05T13:27:39.838Z,97353.70
2018-09-05T13:30:10.083Z,97357.96
2018-09-05T13:32:39.913Z,97350.61
2018-09-05T13:35:10.662Z,97349.29
2018-09-05T13:37:40.332Z,97351.89
2018-09-05T13:40:10.489Z,97352.33
2018-09-05T13:42:40.128Z,97350.69
2018-09-05T13:45:09.888Z,97345.55
2018-09-05T13:47:39.600Z,97346.41
2018-09-05T13:50:09.480Z,97351.69
2018-09-05T13:52:40.086Z,97346.32
2018-09-05T13:55:10.005Z,97345.52
2018-09-05T13:57:39.640Z,97344.89
2018-09-05T14:00:13.379Z,97335.38
2018-09-05T14:02:43.405Z,97333.53
2018-09-05T14:05:13.908Z,97339.77
2018-09-05T14:07:44.131Z,97336.32
2018-09-05T14:10:16.416Z,97339.17
2018-09-05T14:12:47.191Z,97335.16
2018-09-05T14:15:17.052Z,97335.94
2018-09-05T14:17:46.806Z,97337.45
2018-09-05T14:20:16.796Z,97339.52
2018-09-05T14:22:46.960Z,97335.27
2018-09-05T14:25:16.576Z,97331.06
2018-09-05T14:27:46.338Z,97328.64
2018-09-05T14:30:16.314Z,97332.55
2018-09-05T14:32:46.150Z,97331.16
2018-09-05T14:35:15.915Z,97330.23
2018-09-05T14:37:46.502Z,97325.89
2018-09-05T14:40:17.051Z,97324.27
2018-09-05T14:42:47.488Z,97323.99
2018-09-05T14:45:17.373Z,97324.06
2018-09-05T14:47:47.280Z,97323.23
2018-09-05T14:50:16.914Z,97318.25
2018-09-05T14:52:46.570Z,97323.42
2018-09-05T14:55:16.586Z,97321.91
2018-09-05T14:57:46.311Z,97321.09
2018-09-05T15:00:16.014Z,97317.41
2018-09-05T15:02:45.853Z,97314.98
2018-09-05T15:05:16.151Z,97314.44
2018-09-05T15:07:48.632Z,97315.56
2018-09-05T15:10:19.104Z,97309.53
2018-09-05T15:12:48.732Z,97311.91
2018-09-05T15:15:18.390Z,97317.00
2018-09-05T15:17:48.650Z,97311.08
2018-09-05T15:20:19.487Z,97317.08
2018-09-05T15:22:49.103Z,97309.63
2018-09-05T15:25:19.707Z,97313.07
2018-09-05T15:27:49.522Z,97310.13
2018-09-05T15:30:19.278Z,97308.31
2018-09-05T15:32:49.125Z,97307.09
2018-09-05T15:35:18.805Z,97311.08
2018-09-05T15:37:48.575Z,97308.74
2018-09-05T15:40:19.267Z,97311.48
2018-09-05T15:42:49.047Z,97319.48
2018-09-05T15:45:19.764Z,97323.48
2018-09-05T15:47:49.544Z,97314.26
2018-09-05T15:50:20.351Z,97315.36
2018-09-05T15:52:51.141Z,97313.56
2018-09-05T15:55:22.500Z,97316.08
2018-09-05T15:57:52.136Z,97319.02
2018-09-05T16:00:23.452Z,97312.48
2018-09-05T16:02:53.224Z,97317.13
2018-09-05T16:05:22.989Z,97316.79
2018-09-05T16:07:52.718Z,97319.55
2018-09-05T16:10:22.480Z,97318.92
2018-09-05T16:12:52.461Z,97328.91
2018-09-05T16:15:22.950Z,97331.73
2018-09-05T16:17:52.807Z,97337.53
2018-09-05T16:20:22.979Z,97335.51
2018-09-05T16:22:52.750Z,97335.48
2018-09-05T16:25:23.283Z,97336.00
2018-09-05T16:27:54.009Z,97339.13
2018-09-05T16:30:24.725Z,97332.70
2018-09-05T16:32:55.148Z,97339.34
2018-09-05T16:35:25.912Z,97332.23
2018-09-05T16:37:57.228Z,97336.70
2018-09-05T16:40:26.910Z,97336.05
2018-09-05T16:42:57.124Z,97333.56
2018-09-05T16:45:26.994Z,97335.80
2018-09-05T16:47:58.873Z,97338.67
2018-09-05T16:50:29.896Z,97333.09
2018-09-05T16:53:00.610Z,97337.95
2018-09-05T16:55:30.987Z,97342.80
2018-09-05T16:58:00.742Z,97338.92
2018-09-05T17:00:31.430Z,97339.12
2018-09-05T17:03:01.436Z,97336.78
2018-09-05T17:05:31.287Z,97339.64
2018-09-05T17:08:02.647Z,97343.48
2018-09-05T17:10:32.521Z,97341.77
2018-09-05T17:13:03.239Z,97351.08
2018-09-05T17:15:33.109Z,97349.70
2018-09-05T17:18:03.154Z,97346.73
2018-09-05T17:20:32.842Z,97348.36
2018-09-05T17:23:04.500Z,97346.98
2018-09-05T17:25:34.366Z,97349.00
2018-09-05T17:28:04.237Z,97353.46
2018-09-05T17:30:38.173Z,97353.81
2018-09-05T17:33:08.246Z,97352.53
2018-09-05T17:35:38.014Z,97343.28
2018-09-05T17:38:07.993Z,97356.45
2018-09-05T17:40:37.993Z,97359.66
2018-09-05T17:43:08.954Z,97355.63
2018-09-05T17:45:38.836Z,97356.55
2018-09-05T17:48:08.510Z,97357.41
2018-09-05T17:50:38.875Z,97360.12
2018-09-05T17:53:08.543Z,97362.34
2018-09-05T17:55:38.325Z,97367.22
2018-09-05T17:58:09.027Z,97366.33
2018-09-05T18:00:42.697Z,97367.69
2018-09-05T18:03:12.729Z,97373.06
2018-09-05T18:05:42.503Z,97377.23
2018-09-05T18:08:13.349Z,97378.40
2018-09-05T18:10:43.613Z,97388.23
2018-09-05T18:13:13.375Z,97391.56
2018-09-05T18:15:44.242Z,97405.80
2018-09-05T18:18:13.699Z,97406.76
2018-09-05T18:20:47.191Z,97413.16
2018-09-05T18:23:17.779Z,97421.20
2018-09-05T18:25:50.168Z,97421.19
2018-09-05T18:28:20.882Z,97426.34
2018-09-05T18:30:50.637Z,97429.10
2018-09-05T18:33:23.948Z,97428.56
2018-09-05T18:35:53.924Z,97437.16
2018-09-05T18:38:25.015Z,97436.94
2018-09-05T18:40:56.716Z,97435.70
2018-09-05T18:43:26.380Z,97438.75
2018-09-05T18:45:57.054Z,97438.06
2018-09-05T18:48:26.647Z,97446.25
2018-09-05T18:50:59.545Z,97446.34
2018-09-05T18:53:52.698Z,97446.27
2018-09-05T18:56:24.917Z,97448.51
2018-09-05T18:59:00.218Z,97449.20
2018-09-05T19:01:31.316Z,97447.87
2018-09-05T19:04:02.297Z,97444.77
2018-09-05T19:06:38.993Z,97442.68
2018-09-05T19:09:15.044Z,97442.20
2018-09-05T19:11:50.557Z,97443.38
2018-09-05T19:14:21.354Z,97443.38
2018-09-05T19:16:53.759Z,97448.47
2018-09-05T19:19:25.221Z,97448.37
2018-09-05T19:25:06.016Z,97455.20
2018-09-05T19:27:37.389Z,97459.41
2018-09-05T19:30:09.088Z,97453.61
2018-09-05T19:32:39.896Z,97456.65
2018-09-05T19:35:10.058Z,97459.98
2018-09-05T19:37:41.753Z,97455.98
2018-09-05T19:40:12.126Z,97464.68
2018-09-05T19:42:41.690Z,97464.68
2018-09-05T19:45:12.708Z,97468.69
2018-09-05T19:47:44.756Z,97468.73
2018-09-05T19:50:16.219Z,97468.37
2018-09-05T19:52:46.649Z,97468.37
2018-09-05T19:55:17.609Z,97462.73
2018-09-05T19:57:48.618Z,97464.68
2018-09-05T20:00:29.623Z,97456.34
2018-09-05T20:02:59.412Z,97468.55
2018-09-05T20:05:32.530Z,97465.61
2018-09-05T20:08:02.298Z,97467.08
2018-09-05T20:10:33.257Z,97467.20
2018-09-05T20:13:04.562Z,97459.70
2018-09-05T20:15:35.166Z,97461.75
2018-09-05T20:18:11.132Z,97464.50
2018-09-05T20:20:40.886Z,97461.17
2018-09-05T20:23:11.135Z,97464.88
2018-09-05T20:25:40.965Z,97471.14
2018-09-05T20:28:12.796Z,97475.59
2018-09-05T20:30:42.485Z,97479.66
2018-09-05T20:33:18.956Z,97472.85
2018-09-05T20:35:48.933Z,97472.02
2018-09-05T20:38:19.892Z,97478.48
2018-09-05T20:40:50.290Z,97474.41
2018-09-05T20:43:22.801Z,97476.59
2018-09-05T20:45:54.035Z,97472.36
2018-09-05T20:48:23.536Z,97472.75
2018-09-05T20:50:54.023Z,97476.08
2018-09-05T20:53:24.875Z,97471.44
2018-09-05T20:55:54.526Z,97466.06
2018-09-05T20:58:26.141Z,97470.26
2018-09-05T21:00:57.504Z,97473.51
2018-09-05T21:03:28.688Z,97469.69
2018-09-05T21:06:02.386Z,97471.74
2018-09-05T21:08:33.489Z,97475.32
2018-09-05T21:11:03.373Z,97479.84
2018-09-05T21:13:34.172Z,97475.86
2018-09-05T21:16:06.147Z,97478.96
2018-09-05T21:18:36.438Z,97476.78
2018-09-05T21:21:08.234Z,97475.53
2018-09-05T21:23:37.974Z,97481.62
2018-09-05T21:26:07.730Z,97480.05
2018-09-05T21:28:37.679Z,97478.73
2018-09-05T21:31:07.764Z,97482.22
2018-09-05T21:33:37.330Z,97479.18
2018-09-05T21:36:07.524Z,97477.30
2018-09-05T21:38:37.267Z,97477.00
2018-09-05T21:41:08.861Z,97478.91
2018-09-05T21:43:38.645Z,97467.12
2018-09-05T21:46:08.749Z,97468.91
2018-09-05T21:48:38.319Z,97467.34
2018-09-05T21:51:08.238Z,97464.58
2018-09-05T21:53:37.846Z,97462.77
2018-09-05T21:56:08.375Z,97458.88
2018-09-05T21:58:37.917Z,97455.78
2018-09-05T22:01:08.000Z,97463.44
2018-09-05T22:03:37.443Z,97466.12
2018-09-05T22:06:07.220Z,97460.11
2018-09-05T22:08:36.864Z,97455.36
2018-09-05T22:11:11.491Z,97455.39
2018-09-05T22:13:41.248Z,97451.91
2018-09-05T22:16:10.935Z,97453.09
2018-09-05T22:18:40.711Z,97453.66
2018-09-05T22:21:10.255Z,97456.27
2018-09-05T22:23:39.888Z,97460.57
2018-09-05T22:26:09.462Z,97449.98
2018-09-05T22:28:39.297Z,97454.30
2018-09-05T22:31:08.936Z,97448.53
2018-09-05T22:33:38.658Z,97449.09
2018-09-05T22:36:08.388Z,97451.03
2018-09-05T22:38:38.006Z,97448.01
2018-09-05T22:41:07.977Z,97454.98
2018-09-05T22:43:48.282Z,97448.89
2018-09-05T22:46:28.554Z,97453.88
2018-09-05T22:49:11.531Z,97443.73
2018-09-05T22:51:55.342Z,97446.13
2018-09-05T22:55:16.660Z,97446.13
2018-09-05T23:00:30.024Z,97441.63
2018-09-05T23:03:18.004Z,97447.61
2018-09-05T23:11:56.865Z,97427.92
2018-09-05T23:15:35.767Z,97431.87
2018-09-05T23:18:27.408Z,97430.53
2018-09-05T23:21:28.343Z,97423.38
2018-09-05T23:24:01.882Z,97422.38
2018-09-05T23:26:31.601Z,97421.84
2018-09-05T23:29:01.422Z,97423.22
2018-09-05T23:31:31.274Z,97427.80
2018-09-05T23:34:01.024Z,97431.57
2018-09-05T23:36:30.636Z,97430.52
2018-09-05T23:39:00.330Z,97427.38
2018-09-05T23:41:30.012Z,97425.73
2018-09-05T23:43:59.603Z,97424.80
2018-09-05T23:46:29.203Z,97420.03
2018-09-05T23:48:58.707Z,97413.84
2018-09-05T23:51:28.576Z,97420.16
2018-09-05T23:53:58.269Z,97413.12
2018-09-05T23:56:28.755Z,97401.86
2018-09-05T23:58:58.486Z,97399.89
